Time;durP1;ratioP1;P1;durP2;ratioP2;P2;SDS_P1;SDS_P2;PMS_P1;PMS_P2;Temp;Humidity;BMP_temperature;BMP_pressure;BME280_temperature;BME280_humidity;BME280_pressure;Samples;Min_cycle;Max_cycle;Signal;HPM_P1;HPM_P2
2022/11/16 00:01:51;;;;;;;8.50;6.55;;;10.30;99.90;;;;;;5111269;27;20035;-73
2022/11/16 00:04:17;;;;;;;8.20;7.03;;;10.10;99.90;;;;;;5152525;27;20509;-73
2022/11/16 00:06:44;;;;;;;8.45;6.55;;;11.20;99.90;;;;;;5120971;27;20043;-73
2022/11/16 00:09:25;;;;;;;7.85;7.13;;;10.10;99.90;;;;;;5140285;27;20068;-73
2022/11/16 00:11:55;;;;;;;9.98;7.15;;;10.10;99.90;;;;;;5144200;27;20035;-73
2022/11/16 00:14:23;;;;;;;8.48;7.57;;;10.30;99.90;;;;;;5130905;27;20039;-74
2022/11/16 00:16:49;;;;;;;8.05;7.25;;;10.10;99.90;;;;;;5132720;27;20047;-74
2022/11/16 00:19:15;;;;;;;10.57;7.75;;;10.10;99.90;;;;;;5110484;27;20045;-74
2022/11/16 00:21:41;;;;;;;8.63;7.75;;;10.90;99.90;;;;;;5108984;27;20398;-74
2022/11/16 00:24:09;;;;;;;9.45;8.45;;;10.20;99.90;;;;;;5130884;27;20504;-72
2022/11/16 00:26:35;;;;;;;9.43;8.48;;;10.20;99.90;;;;;;5149239;27;20474;-72
2022/11/16 00:29:00;;;;;;;9.40;8.50;;;10.20;99.90;;;;;;5129947;27;20107;-73
2022/11/16 00:31:26;;;;;;;9.98;8.95;;;10.20;99.90;;;;;;5130071;27;20381;-72
2022/11/16 00:33:52;;;;;;;9.00;8.10;;;10.20;99.90;;;;;;5128687;27;20095;-73
2022/11/16 00:36:18;;;;;;;8.40;7.55;;;10.20;99.90;;;;;;5143759;27;20051;-73
2022/11/16 00:38:43;;;;;;;10.30;8.95;;;10.20;99.90;;;;;;5119897;27;20478;-73
2022/11/16 00:41:09;;;;;;;10.00;9.00;;;10.20;99.90;;;;;;5133071;27;20081;-74
2022/11/16 00:43:35;;;;;;;10.48;8.50;;;10.20;99.90;;;;;;5135366;27;20045;-74
2022/11/16 00:46:02;;;;;;;9.57;8.70;;;10.20;99.90;;;;;;5132985;27;20031;-74
2022/11/16 00:48:27;;;;;;;9.90;8.80;;;10.30;99.90;;;;;;5133040;27;20035;-74
2022/11/16 00:50:53;;;;;;;10.68;9.43;;;10.20;99.90;;;;;;5137131;27;20045;-75
2022/11/16 00:53:19;;;;;;;11.35;9.90;;;10.20;99.90;;;;;;5127282;27;20452;-73
2022/11/16 00:55:46;;;;;;;11.00;9.30;;;10.30;99.90;;;;;;5107955;27;20397;-74
2022/11/16 00:58:13;;;;;;;11.15;9.60;;;10.30;99.90;;;;;;5133433;27;20512;-73
2022/11/16 01:00:39;;;;;;;10.85;9.85;;;10.80;99.90;;;;;;5126679;27;20051;-73
2022/11/16 01:03:05;;;;;;;11.15;10.02;;;10.30;99.90;;;;;;5107438;27;20037;-74
2022/11/16 01:05:31;;;;;;;11.82;10.02;;;11.30;99.90;;;;;;5108519;27;20051;-73
2022/11/16 01:07:57;;;;;;;10.70;9.65;;;11.60;99.90;;;;;;5152072;27;20408;-73
2022/11/16 01:10:25;;;;;;;12.77;10.13;;;11.00;99.90;;;;;;5146225;27;20463;-73
2022/11/16 01:12:52;;;;;;;11.85;10.70;;;10.30;99.90;;;;;;5138294;27;20046;-73
2022/11/16 01:15:20;;;;;;;11.50;10.30;;;10.30;99.90;;;;;;5112810;27;20049;-73
2022/11/16 01:17:45;;;;;;;14.25;11.02;;;10.30;99.90;;;;;;5110806;27;20111;-73
2022/11/16 01:20:15;;;;;;;10.95;9.85;;;10.30;99.90;;;;;;5129495;27;20179;-73
2022/11/16 01:22:41;;;;;;;10.38;9.40;;;10.70;99.90;;;;;;5133315;27;20118;-73
2022/11/16 01:25:08;;;;;;;11.30;9.95;;;10.30;99.90;;;;;;5113610;27;20465;-74
2022/11/16 01:27:34;;;;;;;11.90;10.27;;;10.30;99.90;;;;;;5147102;27;20413;-74
2022/11/16 01:29:59;;;;;;;10.52;9.40;;;10.30;99.90;;;;;;5110912;27;20043;-74
2022/11/16 01:32:25;;;;;;;11.43;10.23;;;10.30;99.90;;;;;;5129145;27;20221;-74
2022/11/16 01:34:51;;;;;;;11.40;10.27;;;10.30;99.90;;;;;;5147651;27;20489;-74
2022/11/16 01:37:18;;;;;;;11.45;10.35;;;10.60;99.90;;;;;;5123217;27;20047;-74
2022/11/16 01:39:44;;;;;;;10.50;9.45;;;10.40;99.90;;;;;;5126193;27;20054;-73
2022/11/16 01:42:17;;;;;;;11.98;9.65;;;11.30;99.90;;;;;;5123382;27;20043;-73
2022/11/16 01:44:43;;;;;;;10.68;9.48;;;10.40;99.90;;;;;;5102793;27;20386;-73
2022/11/16 01:47:12;;;;;;;11.38;10.20;;;10.40;99.90;;;;;;5121807;27;20039;-74
2022/11/16 01:49:46;;;;;;;11.50;10.30;;;10.70;99.90;;;;;;5107569;27;20612;-74
2022/11/16 01:52:19;;;;;;;13.70;8.93;;;10.40;99.90;;;;;;5125197;27;20054;-73
2022/11/16 01:54:47;;;;;;;11.20;10.10;;;10.40;99.90;;;;;;5123315;27;20108;-74
2022/11/16 01:57:22;;;;;;;11.77;9.27;;;10.40;99.90;;;;;;5110221;27;20039;-74
2022/11/16 01:59:51;;;;;;;11.52;9.75;;;10.40;99.90;;;;;;5104962;27;20100;-74
2022/11/16 02:02:17;;;;;;;11.23;9.20;;;10.40;99.90;;;;;;5126509;27;20076;-73
2022/11/16 02:04:45;;;;;;;11.38;9.95;;;11.20;99.90;;;;;;5120875;27;20047;-73
2022/11/16 02:07:27;;;;;;;10.77;9.70;;;10.40;99.90;;;;;;5104423;27;20377;-74
2022/11/16 02:10:19;;;;;;;10.18;8.73;;;10.50;99.90;;;;;;5118273;27;20091;-73
2022/11/16 02:13:28;;;;;;;15.95;9.88;;;10.50;99.90;;;;;;5121666;27;20063;-74
2022/11/16 02:16:13;;;;;;;9.55;8.55;;;10.50;99.90;;;;;;5097246;27;20079;-73
2022/11/16 02:18:58;;;;;;;10.98;9.70;;;10.40;99.90;;;;;;5104424;27;20039;-73
2022/11/16 02:21:40;;;;;;;12.65;8.88;;;10.40;99.90;;;;;;5115784;27;20114;-73
2022/11/16 02:24:14;;;;;;;10.02;9.00;;;10.50;99.90;;;;;;5102041;28;20043;-73
2022/11/16 02:27:38;;;;;;;10.52;8.68;;;10.80;99.90;;;;;;5125127;27;20054;-73
2022/11/16 02:30:04;;;;;;;11.02;9.05;;;10.50;99.90;;;;;;5055244;27;20079;-73
2022/11/16 02:33:01;;;;;;;11.75;9.07;;;10.50;99.90;;;;;;5123602;27;20051;-73
2022/11/16 02:35:41;;;;;;;9.88;8.30;;;10.40;99.90;;;;;;5100343;27;20508;-73
2022/11/16 02:38:18;;;;;;;10.48;9.27;;;10.50;99.90;;;;;;5122762;27;20054;-73
2022/11/16 02:40:48;;;;;;;9.02;8.02;;;10.50;99.90;;;;;;5108227;27;20053;-73
2022/11/16 02:43:27;;;;;;;10.02;8.75;;;10.50;99.90;;;;;;5123851;27;20058;-73
2022/11/16 02:45:57;;;;;;;9.80;8.52;;;10.50;99.90;;;;;;5120330;27;20126;-73
2022/11/16 02:48:28;;;;;;;12.02;8.85;;;10.50;99.90;;;;;;5124359;27;20141;-73
2022/11/16 02:50:55;;;;;;;10.18;7.90;;;10.50;99.90;;;;;;5126115;28;20690;-73
2022/11/16 02:53:22;;;;;;;12.13;9.27;;;10.50;99.90;;;;;;5126896;28;20385;-73
2022/11/16 02:55:48;;;;;;;9.77;8.57;;;10.50;99.90;;;;;;5123782;28;20043;-73
2022/11/16 02:58:19;;;;;;;8.95;8.05;;;10.50;99.90;;;;;;5123919;28;20452;-73
2022/11/16 03:01:08;;;;;;;10.02;7.65;;;11.20;99.90;;;;;;5125848;28;20051;-74
2022/11/16 03:03:48;;;;;;;8.52;7.55;;;11.70;99.90;;;;;;5123351;28;20047;-74
2022/11/16 03:06:26;;;;;;;9.73;7.20;;;10.50;99.90;;;;;;5104529;28;20051;-73
2022/11/16 03:09:05;;;;;;;8.13;7.30;;;10.50;99.90;;;;;;5119617;28;20056;-74
2022/11/16 03:14:22;;;;;;;9.50;7.65;;;10.50;99.90;;;;;;5118608;28;20055;-73
2022/11/16 03:16:52;;;;;;;9.43;7.90;;;10.50;99.90;;;;;;5115839;28;20055;-73
2022/11/16 03:19:28;;;;;;;9.30;8.25;;;10.50;99.90;;;;;;5102458;27;20035;-73
2022/11/16 03:21:58;;;;;;;8.25;7.45;;;10.50;99.90;;;;;;5120990;27;20070;-73
2022/11/16 03:24:24;;;;;;;10.65;8.93;;;10.60;99.90;;;;;;5123025;27;20182;-74
2022/11/16 03:27:00;;;;;;;8.75;7.88;;;10.50;99.90;;;;;;5105327;27;20164;-74
2022/11/16 03:29:40;;;;;;;11.32;7.85;;;10.50;99.90;;;;;;5122367;27;20088;-74
2022/11/16 03:32:53;;;;;;;10.88;7.82;;;10.50;99.90;;;;;;5123187;27;20047;-74
2022/11/16 03:35:25;;;;;;;8.82;7.57;;;10.50;99.90;;;;;;5043693;28;20059;-73
2022/11/16 03:37:55;;;;;;;12.27;9.02;;;10.60;99.90;;;;;;5025986;28;20061;-73
2022/11/16 03:40:23;;;;;;;12.63;8.23;;;10.60;99.90;;;;;;5067649;28;20052;-73
2022/11/16 03:42:49;;;;;;;14.77;8.40;;;10.50;99.90;;;;;;5089533;27;20578;-73
2022/11/16 03:45:17;;;;;;;11.95;9.02;;;10.50;99.90;;;;;;5103900;27;20051;-74
2022/11/16 03:47:44;;;;;;;15.15;9.88;;;10.60;99.90;;;;;;5088401;28;20130;-73
2022/11/16 03:50:10;;;;;;;15.13;10.10;;;10.50;99.90;;;;;;5102784;27;20136;-74
2022/11/16 03:52:36;;;;;;;10.38;8.90;;;10.90;99.90;;;;;;5107967;27;20043;-74
2022/11/16 03:55:03;;;;;;;11.82;8.43;;;10.50;99.90;;;;;;5103799;28;20082;-74
2022/11/16 03:57:29;;;;;;;9.00;8.10;;;10.50;99.90;;;;;;5115690;27;20047;-74
2022/11/16 03:59:55;;;;;;;11.23;9.18;;;10.50;99.90;;;;;;5103324;28;20040;-73
2022/11/16 04:02:20;;;;;;;10.00;7.72;;;10.50;99.90;;;;;;5106859;27;20039;-74
2022/11/16 04:24:19;;;;;;;9.30;7.25;;;10.50;99.90;;;;;;5100021;27;20514;-74
2022/11/16 04:29:34;;;;;;;12.18;8.13;;;10.50;99.90;;;;;;5108115;27;20416;-73
2022/11/16 04:37:48;;;;;;;8.25;7.25;;;11.40;99.90;;;;;;5136139;27;20046;-74
2022/11/16 04:40:15;;;;;;;8.02;6.82;;;10.50;99.90;;;;;;5120624;27;20569;-73
2022/11/16 04:42:41;;;;;;;8.48;7.63;;;10.50;99.90;;;;;;5139103;27;20035;-74
2022/11/16 04:47:52;;;;;;;8.18;6.97;;;10.50;99.90;;;;;;5145067;27;20072;-74
2022/11/16 04:50:19;;;;;;;8.95;7.55;;;10.70;99.90;;;;;;5142325;27;20045;-73
2022/11/16 04:52:45;;;;;;;9.20;6.82;;;10.50;99.90;;;;;;5114097;27;20053;-74
2022/11/16 04:55:10;;;;;;;9.43;7.85;;;10.50;99.90;;;;;;5140696;27;20991;-74
2022/11/16 04:57:36;;;;;;;10.82;7.53;;;10.50;99.90;;;;;;5143683;27;20054;-74
2022/11/16 05:00:04;;;;;;;7.30;6.63;;;11.30;99.90;;;;;;5117000;27;20118;-74
2022/11/16 05:02:30;;;;;;;8.00;7.25;;;10.50;99.90;;;;;;5142617;27;20041;-74
2022/11/16 05:04:55;;;;;;;7.13;6.43;;;10.50;99.90;;;;;;5117210;27;20047;-74
2022/11/16 05:07:21;;;;;;;7.15;6.32;;;11.60;99.90;;;;;;5117035;27;20038;-74
2022/11/16 05:09:47;;;;;;;8.38;6.80;;;11.20;99.90;;;;;;5133427;27;20046;-74
2022/11/16 05:12:18;;;;;;;7.25;6.55;;;11.00;99.90;;;;;;5116762;27;21348;-74
2022/11/16 05:14:45;;;;;;;8.43;6.72;;;10.50;99.90;;;;;;5114957;27;20051;-74
2022/11/16 05:17:12;;;;;;;8.20;6.97;;;10.50;99.90;;;;;;5135035;27;20045;-74
2022/11/16 05:22:23;;;;;;;10.35;6.70;;;10.50;99.90;;;;;;5141145;27;20047;-74
2022/11/16 05:24:48;;;;;;;8.70;6.63;;;10.50;99.90;;;;;;5144516;27;20042;-74
2022/11/16 05:27:16;;;;;;;7.60;6.57;;;10.50;99.90;;;;;;5132114;27;20492;-74
2022/11/16 05:29:42;;;;;;;7.82;7.13;;;11.70;99.90;;;;;;5145968;27;20046;-74
2022/11/16 05:32:10;;;;;;;12.48;7.32;;;10.50;99.90;;;;;;5130910;27;20106;-74
2022/11/16 05:34:36;;;;;;;7.90;7.13;;;10.50;99.90;;;;;;5146114;27;20506;-74
2022/11/16 05:37:02;;;;;;;8.45;7.53;;;10.50;99.90;;;;;;5129324;27;20050;-74
2022/11/16 05:39:28;;;;;;;11.10;9.65;;;10.50;99.90;;;;;;5130036;27;20073;-74
2022/11/16 05:41:53;;;;;;;7.53;6.82;;;11.20;99.90;;;;;;5122555;27;20477;-74
2022/11/16 05:44:19;;;;;;;7.30;6.53;;;10.50;99.90;;;;;;5128949;27;20037;-73
2022/11/16 05:46:45;;;;;;;10.80;6.95;;;10.50;99.90;;;;;;5131240;27;20171;-73
2022/11/16 05:49:12;;;;;;;8.60;7.80;;;11.10;99.90;;;;;;5129957;27;20038;-74
2022/11/16 05:51:40;;;;;;;11.40;7.45;;;10.50;99.90;;;;;;5129297;27;20066;-74
2022/11/16 05:54:06;;;;;;;8.02;7.32;;;10.40;99.90;;;;;;5124920;27;20470;-74
2022/11/16 05:56:33;;;;;;;8.15;7.00;;;11.40;99.90;;;;;;5126948;27;20031;-74
2022/11/16 05:58:59;;;;;;;9.35;8.20;;;10.50;99.90;;;;;;5130674;27;20367;-74
2022/11/16 06:01:26;;;;;;;9.50;7.97;;;10.50;99.90;;;;;;5117681;27;20405;-74
2022/11/16 06:03:52;;;;;;;7.88;6.90;;;10.50;99.90;;;;;;5139789;27;20039;-74
2022/11/16 06:06:19;;;;;;;9.40;8.50;;;10.50;99.90;;;;;;5146690;27;20103;-74
2022/11/16 06:08:45;;;;;;;9.18;8.27;;;10.50;99.90;;;;;;5128757;27;20049;-73
2022/11/16 06:11:11;;;;;;;8.90;8.05;;;10.50;99.90;;;;;;5144036;27;20087;-74
2022/11/16 06:13:37;;;;;;;10.57;9.48;;;11.30;99.90;;;;;;5127796;27;20051;-73
2022/11/16 06:16:04;;;;;;;9.73;8.93;;;11.30;99.90;;;;;;5105441;27;20473;-74
2022/11/16 06:18:30;;;;;;;10.02;9.02;;;10.50;99.90;;;;;;5114259;27;20039;-73
2022/11/16 06:20:56;;;;;;;14.20;9.10;;;11.10;99.90;;;;;;5139764;27;20075;-73
2022/11/16 06:23:22;;;;;;;12.93;9.70;;;10.80;99.90;;;;;;5145761;27;20470;-73
2022/11/16 06:25:57;;;;;;;10.60;9.60;;;10.50;99.90;;;;;;5124075;27;20085;-74
2022/11/16 06:28:23;;;;;;;11.23;9.85;;;10.50;99.90;;;;;;5123843;27;20098;-74
2022/11/16 06:30:49;;;;;;;14.27;9.88;;;10.50;99.90;;;;;;5116335;27;20074;-73
2022/11/16 06:33:15;;;;;;;12.88;10.38;;;10.50;99.90;;;;;;5123229;27;20387;-74
2022/11/16 06:35:41;;;;;;;12.50;11.02;;;10.50;99.90;;;;;;5145729;27;20134;-74
2022/11/16 06:38:07;;;;;;;11.27;10.07;;;10.40;99.90;;;;;;5107175;27;20110;-73
2022/11/16 06:40:33;;;;;;;13.85;10.10;;;10.60;99.90;;;;;;5145009;27;20039;-73
2022/11/16 06:42:58;;;;;;;11.93;9.55;;;11.60;99.90;;;;;;5107213;27;20111;-74
2022/11/16 06:45:25;;;;;;;9.10;8.15;;;10.50;99.90;;;;;;5123408;27;20034;-74
2022/11/16 06:47:51;;;;;;;10.07;8.10;;;11.00;99.90;;;;;;5125127;27;20082;-74
2022/11/16 06:50:18;;;;;;;13.32;9.65;;;10.40;99.90;;;;;;5123705;27;20170;-74
2022/11/16 06:52:47;;;;;;;10.30;8.25;;;10.50;99.90;;;;;;5121555;27;20038;-74
2022/11/16 06:55:13;;;;;;;8.68;7.88;;;10.50;99.90;;;;;;5122374;27;20042;-74
2022/11/16 06:57:39;;;;;;;9.48;8.32;;;10.50;99.90;;;;;;5149190;27;20044;-74
2022/11/16 07:00:07;;;;;;;9.80;8.57;;;10.40;99.90;;;;;;5107358;27;20061;-74
2022/11/16 07:02:35;;;;;;;10.35;9.35;;;10.40;99.90;;;;;;5127424;27;20074;-74
2022/11/16 07:05:01;;;;;;;10.27;9.27;;;10.40;99.90;;;;;;5121248;27;20134;-74
2022/11/16 07:07:26;;;;;;;15.30;10.05;;;10.40;99.90;;;;;;5097648;27;20122;-74
2022/11/16 07:09:52;;;;;;;11.15;10.07;;;10.40;99.90;;;;;;5126584;27;20046;-74
2022/11/16 07:12:17;;;;;;;10.60;9.52;;;10.40;99.90;;;;;;5124367;27;20031;-74
2022/11/16 07:14:44;;;;;;;9.65;8.68;;;10.40;99.90;;;;;;5105013;27;20432;-74
2022/11/16 07:17:10;;;;;;;10.48;9.27;;;10.40;99.90;;;;;;5108318;27;20545;-74
2022/11/16 07:19:36;;;;;;;10.00;8.88;;;10.40;99.90;;;;;;5111912;27;20141;-74
2022/11/16 07:22:02;;;;;;;9.80;8.70;;;10.40;99.90;;;;;;5129395;27;20062;-74
2022/11/16 07:24:27;;;;;;;11.85;9.98;;;9.60;99.90;;;;;;5124567;27;20393;-74
2022/11/16 07:26:53;;;;;;;9.35;8.02;;;10.30;99.90;;;;;;5113627;27;20042;-74
2022/11/16 07:29:20;;;;;;;9.23;8.07;;;10.40;99.90;;;;;;5129239;27;20605;-74
2022/11/16 07:31:45;;;;;;;10.30;8.50;;;10.40;99.90;;;;;;5142273;27;20398;-74
2022/11/16 07:34:11;;;;;;;9.05;8.20;;;10.40;99.90;;;;;;5107226;27;20039;-74
2022/11/16 07:36:37;;;;;;;8.02;7.32;;;10.40;99.90;;;;;;5128100;27;20050;-74
2022/11/16 07:39:02;;;;;;;8.25;7.45;;;10.40;99.90;;;;;;5147671;27;20086;-74
2022/11/16 07:41:28;;;;;;;8.40;7.55;;;10.40;99.90;;;;;;5149953;27;20035;-74
2022/11/16 07:43:54;;;;;;;8.25;7.40;;;10.40;99.90;;;;;;5108196;27;20042;-74
2022/11/16 07:46:22;;;;;;;8.95;7.32;;;10.40;99.90;;;;;;5133503;27;20079;-74
2022/11/16 07:48:48;;;;;;;8.07;6.80;;;10.40;99.90;;;;;;5150809;27;20063;-75
2022/11/16 07:51:15;;;;;;;7.47;6.80;;;11.30;99.90;;;;;;5114687;27;20562;-74
2022/11/16 07:53:42;;;;;;;7.30;6.68;;;11.40;99.90;;;;;;5109575;27;20043;-75
2022/11/16 07:56:08;;;;;;;7.45;6.53;;;10.50;99.90;;;;;;5133217;27;20035;-74
2022/11/16 07:58:35;;;;;;;7.90;7.18;;;10.40;99.90;;;;;;5114818;27;20050;-74
2022/11/16 08:01:06;;;;;;;7.07;6.38;;;10.60;99.90;;;;;;5113990;27;20064;-77
2022/11/16 08:03:32;;;;;;;8.60;7.03;;;10.40;99.90;;;;;;5127467;27;20588;-76
2022/11/16 08:06:06;;;;;;;8.98;7.07;;;10.50;99.90;;;;;;5112395;27;20051;-76
2022/11/16 08:08:32;;;;;;;8.38;6.63;;;10.40;99.90;;;;;;5131371;27;20061;-77
2022/11/16 08:11:03;;;;;;;8.55;7.65;;;10.40;99.90;;;;;;5145333;27;20577;-73
2022/11/16 08:13:32;;;;;;;7.93;7.07;;;10.40;99.90;;;;;;5128538;27;20050;-80
2022/11/16 08:16:09;;;;;;;8.10;7.30;;;10.50;99.90;;;;;;5111430;27;20047;-75
2022/11/16 08:18:36;;;;;;;8.23;7.43;;;10.40;99.90;;;;;;4421909;27;10001028;-75
2022/11/16 08:21:02;;;;;;;7.28;6.60;;;10.40;99.90;;;;;;5128378;27;20039;-74
2022/11/16 08:23:29;;;;;;;9.48;7.47;;;10.40;99.90;;;;;;5143568;27;20034;-75
2022/11/16 08:26:00;;;;;;;9.55;7.90;;;10.40;99.90;;;;;;5122898;27;20096;-74
2022/11/16 08:28:26;;;;;;;10.15;7.13;;;11.70;99.90;;;;;;5122655;27;20478;-74
2022/11/16 08:30:52;;;;;;;8.70;7.18;;;10.50;99.90;;;;;;5147736;27;20501;-74
2022/11/16 08:33:20;;;;;;;7.85;7.05;;;10.40;99.90;;;;;;5111801;27;20080;-74
2022/11/16 08:35:49;;;;;;;7.90;7.20;;;10.40;99.90;;;;;;5126540;27;20058;-75
2022/11/16 08:38:17;;;;;;;9.23;7.13;;;10.40;99.90;;;;;;5119847;27;20056;-74
2022/11/16 08:40:43;;;;;;;9.35;7.93;;;10.40;99.90;;;;;;5123166;27;20051;-74
2022/11/16 08:43:10;;;;;;;10.30;8.25;;;10.40;99.90;;;;;;5141551;27;20537;-74
2022/11/16 08:45:36;;;;;;;7.38;6.68;;;10.40;99.90;;;;;;5123529;27;20443;-74
2022/11/16 08:48:05;;;;;;;6.93;6.22;;;10.40;99.90;;;;;;5120591;27;20035;-74
2022/11/16 08:50:31;;;;;;;7.97;7.15;;;10.40;99.90;;;;;;5110955;27;20034;-75
2022/11/16 08:52:57;;;;;;;8.27;6.75;;;10.50;99.90;;;;;;5126011;27;20134;-76
2022/11/16 08:55:24;;;;;;;8.77;7.47;;;10.40;99.90;;;;;;5111648;27;20487;-75
2022/11/16 08:57:50;;;;;;;8.88;7.97;;;10.40;99.90;;;;;;5126475;27;20026;-75
2022/11/16 09:00:16;;;;;;;9.73;7.88;;;10.50;99.90;;;;;;5112394;27;20064;-75
2022/11/16 09:02:42;;;;;;;10.38;8.60;;;10.40;99.90;;;;;;5108063;27;20061;-74
2022/11/16 09:05:10;;;;;;;9.40;8.50;;;10.40;99.90;;;;;;5140513;27;20027;-75
2022/11/16 09:07:39;;;;;;;9.27;8.38;;;10.50;99.90;;;;;;5108339;27;20043;-75
2022/11/16 09:10:06;;;;;;;8.32;7.05;;;10.50;99.90;;;;;;5148849;27;20047;-76
2022/11/16 09:12:35;;;;;;;9.65;7.43;;;10.50;99.90;;;;;;5113051;27;20045;-75
2022/11/16 09:15:01;;;;;;;8.07;7.28;;;10.20;99.90;;;;;;5136603;27;20683;-75
2022/11/16 09:17:27;;;;;;;15.55;8.98;;;10.50;99.90;;;;;;5111638;27;20046;-75
2022/11/16 09:19:53;;;;;;;8.50;7.65;;;10.50;99.90;;;;;;5129858;27;20039;-75
2022/11/16 09:22:18;;;;;;;9.60;8.55;;;11.40;99.90;;;;;;5110857;27;20037;-75
2022/11/16 09:24:44;;;;;;;10.00;8.23;;;12.00;99.90;;;;;;5109568;27;20031;-75
2022/11/16 09:27:10;;;;;;;9.77;7.97;;;10.60;99.90;;;;;;5129445;27;20056;-75
2022/11/16 09:29:35;;;;;;;11.65;9.10;;;10.60;99.90;;;;;;5110414;27;20625;-75
2022/11/16 09:32:02;;;;;;;10.13;9.13;;;11.50;99.90;;;;;;5101012;27;20049;-75
2022/11/16 09:34:28;;;;;;;8.45;7.60;;;10.60;99.90;;;;;;5124105;27;20076;-75
2022/11/16 09:36:54;;;;;;;9.60;8.70;;;10.70;99.90;;;;;;5120907;27;20538;-75
2022/11/16 09:39:19;;;;;;;10.20;8.75;;;10.70;99.90;;;;;;5110490;27;20039;-75
2022/11/16 09:42:20;;;;;;;9.88;8.93;;;10.70;99.90;;;;;;5143412;27;20456;-75
2022/11/16 09:44:55;;;;;;;14.40;10.55;;;10.70;99.90;;;;;;5123844;27;20043;-74
2022/11/16 09:47:25;;;;;;;13.95;11.38;;;10.70;99.90;;;;;;5143788;27;20064;-75
2022/11/16 09:49:53;;;;;;;11.27;9.57;;;10.80;99.90;;;;;;5129389;27;20422;-74
2022/11/16 09:52:35;;;;;;;12.02;10.32;;;11.30;99.90;;;;;;5127319;27;20471;-75
2022/11/16 09:55:22;;;;;;;10.25;8.93;;;10.80;99.90;;;;;;5129631;27;20374;-75
2022/11/16 09:57:51;;;;;;;9.23;8.23;;;10.90;99.90;;;;;;5144875;27;20039;-75
2022/11/16 10:00:21;;;;;;;9.90;8.90;;;12.10;99.90;;;;;;5131108;27;20034;-75
2022/11/16 10:03:02;;;;;;;13.88;9.07;;;10.90;99.90;;;;;;5103908;27;20041;-75
2022/11/16 10:06:04;;;;;;;10.68;9.35;;;10.90;99.90;;;;;;5130949;27;20038;-75
2022/11/16 10:08:46;;;;;;;132.85;91.05;;;10.90;99.90;;;;;;5146786;27;20076;-75
2022/11/16 10:11:20;;;;;;;38.78;35.00;;;11.00;99.90;;;;;;5129255;27;20046;-75
2022/11/16 10:13:46;;;;;;;;;;;11.00;99.90;;;;;;5124087;27;20070;-75
2022/11/16 10:16:30;;;;;;;12.27;9.82;;;11.10;99.90;;;;;;5110494;27;20370;-77
2022/11/16 10:19:21;;;;;;;13.65;9.73;;;11.00;99.90;;;;;;5109325;27;20298;-76
2022/11/16 10:22:07;;;;;;;12.13;10.05;;;11.00;99.90;;;;;;5114056;27;20081;-77
2022/11/16 10:24:59;;;;;;;15.35;10.57;;;11.10;99.90;;;;;;5109585;27;20124;-76
2022/11/16 10:27:41;;;;;;;11.98;9.18;;;11.10;99.90;;;;;;5110051;27;20367;-77
2022/11/16 10:30:08;;;;;;;16.10;9.35;;;11.10;99.90;;;;;;5109564;27;20393;-76
2022/11/16 10:32:44;;;;;;;9.68;8.55;;;10.10;99.90;;;;;;5109550;27;20535;-76
2022/11/16 10:35:09;;;;;;;23.23;11.27;;;11.20;99.90;;;;;;5143376;27;20051;-75
2022/11/16 10:37:40;;;;;;;12.80;9.52;;;11.20;99.90;;;;;;5126787;27;20138;-76
2022/11/16 10:40:22;;;;;;;12.35;8.75;;;11.30;99.90;;;;;;5123789;27;20167;-76
2022/11/16 10:42:56;;;;;;;13.50;8.10;;;11.40;99.90;;;;;;5124388;27;20030;-76
2022/11/16 10:45:35;;;;;;;11.48;7.47;;;11.40;99.90;;;;;;5125885;27;20122;-76
2022/11/16 10:48:19;;;;;;;13.93;8.48;;;11.50;99.90;;;;;;5130107;27;20058;-76
2022/11/16 10:50:46;;;;;;;;;;;11.50;99.90;;;;;;4437035;27;10000927;-76
2022/11/16 10:53:14;;;;;;;14.70;8.38;;;11.50;99.90;;;;;;5107670;27;20048;-75
2022/11/16 10:55:40;;;;;;;13.65;9.73;;;11.40;99.90;;;;;;5107643;27;20043;-75
2022/11/16 10:58:05;;;;;;;16.20;9.80;;;11.40;99.90;;;;;;5107054;27;20090;-76
2022/11/16 11:00:40;;;;;;;13.40;8.82;;;12.00;99.90;;;;;;5108959;27;20558;-76
2022/11/16 11:03:06;;;;;;;14.05;9.45;;;11.40;99.90;;;;;;5139736;27;20472;-77
2022/11/16 11:05:34;;;;;;;16.48;9.18;;;11.40;99.90;;;;;;5119894;27;20080;-77
2022/11/16 11:08:10;;;;;;;15.88;9.20;;;11.40;99.90;;;;;;5108443;27;20058;-76
2022/11/16 11:10:37;;;;;;;13.13;8.35;;;12.50;99.90;;;;;;5094849;28;20050;-77
2022/11/16 11:13:11;;;;;;;12.90;8.63;;;11.30;99.90;;;;;;5122560;27;20485;-75
2022/11/16 11:15:38;;;;;;;12.30;7.93;;;11.30;99.90;;;;;;5122502;27;20047;-75
2022/11/16 11:18:10;;;;;;;13.20;8.85;;;11.40;99.90;;;;;;5110786;27;20269;-76
2022/11/16 11:20:37;;;;;;;13.75;7.72;;;11.30;99.90;;;;;;5102632;28;20714;-77
2022/11/16 11:23:15;;;;;;;12.73;8.02;;;11.30;99.90;;;;;;5110797;27;20043;-77
2022/11/16 11:25:58;;;;;;;15.27;7.75;;;11.30;99.90;;;;;;5139084;27;20039;-77
2022/11/16 11:28:25;;;;;;;14.20;7.55;;;12.30;99.90;;;;;;5122136;27;20062;-77
2022/11/16 11:30:52;;;;;;;15.02;6.78;;;11.30;99.90;;;;;;5127413;27;20095;-76
2022/11/16 11:33:22;;;;;;;8.30;6.90;;;11.30;99.90;;;;;;5140940;27;20486;-75
2022/11/16 11:36:03;;;;;;;10.02;6.55;;;12.20;99.90;;;;;;5116233;27;20147;-76
2022/11/16 11:38:30;;;;;;;10.98;6.45;;;11.30;99.90;;;;;;5113030;28;20122;-75
2022/11/16 11:41:03;;;;;;;10.00;6.15;;;12.10;99.90;;;;;;5128042;27;20043;-76
2022/11/16 11:43:32;;;;;;;6.70;5.05;;;11.40;99.90;;;;;;5117554;27;20053;-77
2022/11/16 11:46:12;;;;;;;9.77;4.53;;;11.40;99.90;;;;;;5131884;27;20127;-76
2022/11/16 11:49:02;;;;;;;10.30;4.90;;;11.50;99.90;;;;;;5128858;27;20517;-79
2022/11/16 11:51:39;;;;;;;8.07;5.18;;;11.50;99.90;;;;;;5131613;27;20035;-80
2022/11/16 11:54:14;;;;;;;7.57;4.80;;;12.70;99.90;;;;;;5113473;27;20098;-76
2022/11/16 11:56:40;;;;;;;12.07;4.80;;;12.30;99.90;;;;;;5130359;27;20043;-77
2022/11/16 11:59:11;;;;;;;8.15;3.67;;;11.60;99.90;;;;;;5149584;27;20053;-76
2022/11/16 12:01:55;;;;;;;7.22;3.38;;;11.70;99.90;;;;;;5130939;27;20047;-74
2022/11/16 12:04:59;;;;;;;10.55;3.05;;;11.70;99.90;;;;;;5145526;27;20069;-78
2022/11/16 12:07:43;;;;;;;11.45;3.55;;;11.70;99.90;;;;;;5112466;27;20051;-79
2022/11/16 12:10:49;;;;;;;5.38;2.55;;;11.70;99.90;;;;;;5131955;27;20175;-78
2022/11/16 12:13:44;;;;;;;5.75;2.28;;;11.70;99.90;;;;;;5132297;27;20092;-78
2022/11/16 12:16:24;;;;;;;5.82;2.25;;;11.70;99.90;;;;;;5115506;27;20042;-78
2022/11/16 12:18:55;;;;;;;7.40;2.05;;;11.70;99.90;;;;;;5130731;27;20505;-77
2022/11/16 12:21:47;;;;;;;6.10;2.15;;;11.70;99.90;;;;;;5115438;27;20050;-78
2022/11/16 12:24:37;;;;;;;9.23;2.17;;;11.70;99.90;;;;;;5112870;27;20047;-75
2022/11/16 12:27:25;;;;;;;7.55;2.38;;;11.70;99.90;;;;;;5110575;27;20084;-77
2022/11/16 12:30:17;;;;;;;12.13;2.55;;;11.80;99.90;;;;;;5132739;27;20087;-75
2022/11/16 12:32:57;;;;;;;9.15;1.67;;;11.70;99.90;;;;;;5131902;27;20112;-75
2022/11/16 12:36:11;;;;;;;7.88;1.92;;;11.70;99.90;;;;;;5133057;27;20129;-75
2022/11/16 12:38:39;;;;;;;6.97;2.25;;;11.70;99.90;;;;;;5047538;27;20101;-75
2022/11/16 12:41:48;;;;;;;11.18;2.38;;;11.70;99.90;;;;;;5111808;27;20035;-75
2022/11/16 12:44:28;;;;;;;4.45;1.83;;;11.60;99.90;;;;;;5128195;27;20031;-75
2022/11/16 12:47:06;;;;;;;6.03;1.75;;;11.60;99.90;;;;;;5129956;27;20497;-75
2022/11/16 12:49:41;;;;;;;8.13;2.35;;;11.50;99.90;;;;;;5109347;27;20066;-74
2022/11/16 12:52:27;;;;;;;9.80;1.88;;;11.50;99.90;;;;;;5115229;27;20366;-74
2022/11/16 12:55:32;;;;;;;8.38;1.88;;;11.50;99.90;;;;;;5141873;27;20103;-75
2022/11/16 12:58:32;;;;;;;5.47;1.53;;;11.50;99.90;;;;;;5130071;27;20043;-75
2022/11/16 13:01:06;;;;;;;7.90;1.83;;;11.60;99.90;;;;;;5066126;27;20289;-73
2022/11/16 13:03:45;;;;;;;7.00;1.77;;;11.60;99.90;;;;;;5145475;27;20049;-75
2022/11/16 13:06:20;;;;;;;13.07;2.45;;;11.60;99.90;;;;;;5140416;27;20035;-75
2022/11/16 13:09:26;;;;;;;9.32;1.58;;;12.20;99.90;;;;;;5109976;27;20070;-75
2022/11/16 13:11:57;;;;;;;5.85;1.58;;;11.70;99.90;;;;;;5081708;28;20044;-75
2022/11/16 13:14:38;;;;;;;7.70;1.73;;;11.70;99.90;;;;;;5116455;27;20518;-75
2022/11/16 13:17:05;;;;;;;10.82;1.70;;;11.70;99.90;;;;;;5128152;27;20390;-74
2022/11/16 13:19:32;;;;;;;9.73;1.90;;;11.70;99.90;;;;;;5124991;27;20039;-75
2022/11/16 13:22:05;;;;;;;7.43;2.00;;;12.50;99.90;;;;;;5108094;27;20035;-74
2022/11/16 13:24:58;;;;;;;11.27;2.08;;;11.80;99.90;;;;;;5143699;27;20041;-75
2022/11/16 13:27:23;;;;;;;6.93;1.73;;;11.80;99.90;;;;;;5105034;27;20398;-75
2022/11/16 13:30:00;;;;;;;6.78;1.70;;;11.80;99.90;;;;;;5142003;27;20047;-74
2022/11/16 13:32:31;;;;;;;11.18;2.08;;;11.80;99.90;;;;;;5109814;27;20043;-77
2022/11/16 13:34:58;;;;;;;10.80;2.85;;;12.10;99.90;;;;;;5112212;27;20146;-75
2022/11/16 13:37:43;;;;;;;11.55;2.35;;;11.70;99.90;;;;;;5124803;27;20096;-74
2022/11/16 13:40:24;;;;;;;6.40;1.83;;;11.60;99.90;;;;;;5142993;27;20046;-75